Terminal Aerodrome Forecast
Issued by NWS

Current Version | Previous Version | Graphics & Text | Print | Product List | Glossary On
Versions: 1 2 3 4 5 6 7 8 9 10 11 12 13 14 15 16 17 18 19 20 21 22 23 24 25 26 27 28 29 30 31 32
000
FTUS41 KPBZ 231942 AAA
TAFHLG
TAF AMD
KHLG 231942Z 2320/2418 22012KT P6SM OVC015 WS020/22040KT
      TEMPO 2320/2323 5SM -SHRA
     FM240000 25007KT P6SM VCSH OVC010
     FM240300 27006KT P6SM VCSH OVC008
     FM241200 02003KT 4SM -RA BR OVC008=

USA.gov is the U.S. government's official web portal to all federal, state and local government web resources and services.